createdAt,value
2018-04-15T00:00:55.018Z,83.11
2018-04-15T00:01:55.034Z,82.43
2018-04-15T00:02:55.050Z,83.01
2018-04-15T00:03:55.068Z,83.11
2018-04-15T00:04:55.083Z,82.53
2018-04-15T00:05:55.095Z,82.43
2018-04-15T00:06:55.111Z,82.63
2018-04-15T00:07:55.126Z,82.43
2018-04-15T00:08:55.143Z,82.43
2018-04-15T00:09:55.164Z,82.53
2018-04-15T00:10:55.179Z,83.29
2018-04-15T00:11:55.191Z,82.34
2018-04-15T00:12:55.208Z,82.15
2018-04-15T00:13:55.222Z,82.06
2018-04-15T00:14:55.237Z,81.77
2018-04-15T00:15:55.253Z,81.77
2018-04-15T00:16:55.270Z,82.15
2018-04-15T00:17:55.284Z,81.77
2018-04-15T00:18:55.300Z,81.58
2018-04-15T00:19:55.315Z,81.67
2018-04-15T00:20:55.333Z,81.67
2018-04-15T00:21:55.346Z,81.67
2018-04-15T00:22:55.364Z,81.96
2018-04-15T00:23:55.379Z,81.63
2018-04-15T00:24:55.400Z,82.53
2018-04-15T00:25:55.415Z,82.43
2018-04-15T00:26:55.431Z,81.58
2018-04-15T00:27:55.445Z,81.58
2018-04-15T00:28:55.470Z,81.58
2018-04-15T00:29:55.476Z,81.77
2018-04-15T00:30:55.494Z,82.53
2018-04-15T00:31:55.514Z,83.01
2018-04-15T00:32:55.523Z,82.06
2018-04-15T00:33:55.542Z,82.34
2018-04-15T00:34:55.557Z,81.67
2018-04-15T00:35:55.572Z,81.20
2018-04-15T00:36:55.590Z,81.29
2018-04-15T00:37:55.601Z,80.91
2018-04-15T00:38:55.622Z,80.43
2018-04-15T00:39:55.634Z,80.53
2018-04-15T00:40:55.664Z,81.20
2018-04-15T00:41:55.665Z,81.48
2018-04-15T00:42:55.679Z,81.10
2018-04-15T00:43:55.703Z,81.38
2018-04-15T00:44:55.717Z,81.29
2018-04-15T00:45:55.739Z,81.67
2018-04-15T00:46:55.746Z,81.38
2018-04-15T00:47:55.758Z,81.48
2018-04-15T00:48:55.824Z,80.91
2018-04-15T00:49:55.788Z,80.91
2018-04-15T00:50:55.805Z,81.38
2018-04-15T00:51:55.822Z,81.10
2018-04-15T00:52:55.839Z,81.10
2018-04-15T00:53:55.851Z,81.10
2018-04-15T00:54:55.867Z,80.81
2018-04-15T00:55:55.883Z,81.20
2018-04-15T00:56:55.914Z,81.01
2018-04-15T00:57:55.948Z,80.81
2018-04-15T00:58:55.932Z,81.67
2018-04-15T00:59:55.947Z,81.58
2018-04-15T01:00:55.964Z,81.67
2018-04-15T01:01:55.982Z,81.48
2018-04-15T01:02:55.994Z,81.48
2018-04-15T01:03:56.011Z,82.43
2018-04-15T01:04:56.026Z,81.67
2018-04-15T01:05:56.049Z,82.15
2018-04-15T01:06:56.059Z,81.20
2018-04-15T01:07:56.076Z,81.29
2018-04-15T01:08:56.095Z,80.81
2018-04-15T01:09:56.104Z,81.10
2018-04-15T01:10:56.122Z,81.29
2018-04-15T01:11:56.142Z,81.54
2018-04-15T01:12:56.159Z,81.82
2018-04-15T01:13:56.174Z,82.20
2018-04-15T01:14:56.186Z,82.20
2018-04-15T01:15:56.206Z,81.77
2018-04-15T01:16:56.220Z,81.86
2018-04-15T01:17:56.243Z,81.20
2018-04-15T01:18:56.246Z,81.67
2018-04-15T01:19:56.275Z,81.48
2018-04-15T01:20:56.284Z,81.67
2018-04-15T01:21:56.300Z,81.73
2018-04-15T01:22:56.314Z,82.11
2018-04-15T01:23:56.327Z,82.78
2018-04-15T01:24:56.342Z,82.78
2018-04-15T01:25:56.357Z,83.06
2018-04-15T01:26:56.377Z,82.49
2018-04-15T01:27:56.387Z,83.16
2018-04-15T01:28:56.415Z,83.29
2018-04-15T01:29:56.417Z,82.63
2018-04-15T01:30:56.433Z,82.34
2018-04-15T01:31:56.453Z,82.34
2018-04-15T01:32:56.467Z,82.72
2018-04-15T01:33:56.489Z,82.53
2018-04-15T01:34:56.499Z,82.30
2018-04-15T01:35:56.520Z,82.72
2018-04-15T01:36:56.541Z,82.49
2018-04-15T01:37:56.545Z,83.01
2018-04-15T01:38:56.559Z,82.87
2018-04-15T01:39:56.585Z,82.91
2018-04-15T01:40:56.590Z,83.11
2018-04-15T01:41:56.609Z,82.87
2018-04-15T01:42:56.653Z,83.01
2018-04-15T01:43:56.639Z,82.72
2018-04-15T01:44:56.672Z,82.82
2018-04-15T01:45:56.687Z,82.43
2018-04-15T01:46:56.683Z,83.01
2018-04-15T01:47:56.703Z,83.20
2018-04-15T01:48:56.772Z,82.34
2018-04-15T01:49:56.740Z,83.01
2018-04-15T01:50:56.747Z,82.82
2018-04-15T01:51:56.764Z,83.11
2018-04-15T01:52:56.781Z,83.58
2018-04-15T01:53:56.791Z,84.06
2018-04-15T01:54:56.808Z,83.67
2018-04-15T01:55:56.824Z,83.67
2018-04-15T01:56:56.839Z,83.87
2018-04-15T01:57:56.853Z,82.82
2018-04-15T01:58:56.869Z,82.72
2018-04-15T01:59:56.885Z,82.34
2018-04-15T02:00:56.901Z,82.72
2018-04-15T02:01:56.916Z,82.63
2018-04-15T02:02:56.934Z,82.15
2018-04-15T02:03:56.949Z,82.82
2018-04-15T02:04:56.969Z,82.63
2018-04-15T02:05:56.980Z,83.39
2018-04-15T02:06:56.999Z,83.01
2018-04-15T02:07:57.022Z,84.16
2018-04-15T02:08:57.031Z,84.92
2018-04-15T02:09:57.045Z,85.21
2018-04-15T02:10:57.059Z,85.49
2018-04-15T02:11:57.073Z,85.39
2018-04-15T02:12:57.099Z,85.01
2018-04-15T02:13:57.105Z,86.06
2018-04-15T02:14:57.122Z,86.06
2018-04-15T02:15:57.138Z,86.92
2018-04-15T02:16:57.153Z,88.73
2018-04-15T02:17:57.167Z,87.68
2018-04-15T02:18:57.186Z,86.73
2018-04-15T02:19:57.202Z,86.54
2018-04-15T02:20:57.234Z,87.40
2018-04-15T02:21:57.231Z,87.30
2018-04-15T02:22:57.248Z,87.68
2018-04-15T02:23:57.262Z,89.40
2018-04-15T02:24:57.278Z,88.16
2018-04-15T02:25:57.293Z,87.40
2018-04-15T02:26:57.312Z,88.98
2018-04-15T02:27:57.327Z,90.22
2018-04-15T02:28:57.341Z,89.64
2018-04-15T02:29:57.360Z,89.45
2018-04-15T02:30:57.388Z,89.64
2018-04-15T02:31:57.388Z,91.17
2018-04-15T02:32:57.422Z,92.03
2018-04-15T02:33:57.421Z,93.27
2018-04-15T02:34:57.481Z,93.84
2018-04-15T02:35:57.453Z,92.60
2018-04-15T02:36:57.483Z,92.41
2018-04-15T02:37:57.482Z,92.79
2018-04-15T02:38:57.499Z,92.69
2018-04-15T02:39:57.514Z,93.08
2018-04-15T02:40:57.530Z,92.69
2018-04-15T02:41:57.550Z,94.03
2018-04-15T02:42:57.565Z,93.84
2018-04-15T02:43:57.575Z,94.03
2018-04-15T02:44:57.592Z,94.41
2018-04-15T02:45:57.610Z,95.27
2018-04-15T02:46:57.627Z,95.27
2018-04-15T02:47:57.639Z,95.27
2018-04-15T02:48:57.657Z,93.74
2018-04-15T02:49:57.675Z,93.65
2018-04-15T02:50:57.687Z,93.79
2018-04-15T02:51:57.703Z,93.74
2018-04-15T02:52:57.742Z,93.74
2018-04-15T02:53:57.733Z,93.65
2018-04-15T02:54:57.750Z,93.17
2018-04-15T02:55:57.810Z,93.55
2018-04-15T02:56:57.781Z,94.03
2018-04-15T02:57:57.795Z,95.27
2018-04-15T02:58:57.812Z,94.22
2018-04-15T02:59:57.836Z,94.22
2018-04-15T03:00:57.843Z,93.55
2018-04-15T03:01:57.861Z,94.41
2018-04-15T03:02:57.876Z,94.03
2018-04-15T03:03:57.892Z,94.51
2018-04-15T03:04:57.907Z,94.89
2018-04-15T03:05:57.920Z,95.17
2018-04-15T03:06:57.935Z,93.93
2018-04-15T03:07:57.955Z,93.84
2018-04-15T03:08:57.970Z,94.03
2018-04-15T03:09:57.995Z,93.65
2018-04-15T03:10:58.001Z,94.22
2018-04-15T03:11:58.014Z,95.27
2018-04-15T03:12:58.030Z,94.79
2018-04-15T03:13:58.048Z,95.75
2018-04-15T03:14:58.060Z,96.13
2018-04-15T03:15:58.081Z,96.70
2018-04-15T03:16:58.093Z,96.70
2018-04-15T03:17:58.114Z,96.51
2018-04-15T03:18:58.124Z,95.94
2018-04-15T03:19:58.148Z,96.61
2018-04-15T03:20:58.158Z,95.65
2018-04-15T03:21:58.175Z,95.27
2018-04-15T03:22:58.186Z,95.75
2018-04-15T03:23:58.208Z,95.56
2018-04-15T03:24:58.219Z,95.27
2018-04-15T03:25:58.263Z,95.27
2018-04-15T03:26:58.250Z,95.65
2018-04-15T03:27:58.264Z,96.61
2018-04-15T03:28:58.280Z,96.51
2018-04-15T03:29:58.298Z,96.61
2018-04-15T03:30:58.318Z,95.94
2018-04-15T03:31:58.330Z,96.70
2018-04-15T03:32:58.353Z,97.37
2018-04-15T03:33:58.380Z,98.80
2018-04-15T03:34:58.378Z,98.22
2018-04-15T03:35:58.394Z,98.61
2018-04-15T03:36:58.412Z,98.42
2018-04-15T03:37:58.421Z,98.80
2018-04-15T03:38:58.436Z,99.99
2018-04-15T03:39:58.452Z,99.99
2018-04-15T03:40:58.473Z,99.46
2018-04-15T03:41:58.487Z,99.99
2018-04-15T03:42:58.503Z,99.99
2018-04-15T03:43:58.535Z,99.99
2018-04-15T03:44:58.532Z,99.99
2018-04-15T03:45:58.547Z,99.99
2018-04-15T03:46:58.600Z,99.99
2018-04-15T03:47:58.600Z,99.99
2018-04-15T03:48:58.592Z,99.99
2018-04-15T03:49:58.608Z,99.99
2018-04-15T03:50:58.629Z,99.99
2018-04-15T03:51:58.643Z,99.99
2018-04-15T03:52:58.655Z,99.95
2018-04-15T03:53:58.674Z,99.99
2018-04-15T03:54:58.688Z,99.99
2018-04-15T03:55:58.701Z,99.99
2018-04-15T03:56:58.723Z,99.99
2018-04-15T03:57:58.733Z,99.99
2018-04-15T03:58:58.760Z,99.99
2018-04-15T03:59:58.778Z,99.99
2018-04-15T04:00:58.779Z,99.99
2018-04-15T04:01:58.798Z,99.99
2018-04-15T04:02:58.833Z,99.99
2018-04-15T04:03:58.855Z,99.99
2018-04-15T04:04:58.870Z,99.99
2018-04-15T04:05:58.860Z,99.99
2018-04-15T04:06:58.878Z,99.99
2018-04-15T04:07:58.888Z,99.99
2018-04-15T04:08:58.908Z,99.99
2018-04-15T04:09:58.918Z,99.99
2018-04-15T04:10:58.937Z,99.99
2018-04-15T04:11:58.954Z,99.99
2018-04-15T04:12:58.968Z,99.99
2018-04-15T04:13:58.993Z,99.99
2018-04-15T04:14:59.019Z,99.99
2018-04-15T04:15:59.018Z,99.99
2018-04-15T04:16:59.029Z,99.99
2018-04-15T04:17:59.040Z,99.99
2018-04-15T04:18:59.052Z,99.99
2018-04-15T04:19:59.072Z,99.99
2018-04-15T04:20:59.094Z,99.99
2018-04-15T04:21:59.100Z,99.99
2018-04-15T04:22:59.115Z,99.99
2018-04-15T04:23:59.129Z,99.99
2018-04-15T04:24:59.144Z,99.99
2018-04-15T04:25:59.158Z,99.99
2018-04-15T04:26:59.174Z,99.99
2018-04-15T04:27:59.190Z,99.99
2018-04-15T04:28:59.213Z,99.99
2018-04-15T04:29:59.224Z,99.99
2018-04-15T04:30:59.239Z,99.99
2018-04-15T04:31:59.253Z,99.99
2018-04-15T04:32:59.269Z,99.99
2018-04-15T04:33:59.282Z,99.99
2018-04-15T04:34:59.297Z,99.99
2018-04-15T04:35:59.312Z,99.99
2018-04-15T04:36:59.330Z,99.99
2018-04-15T04:37:59.351Z,99.99
2018-04-15T04:38:59.359Z,99.99
2018-04-15T04:39:59.376Z,99.99
2018-04-15T04:40:59.390Z,99.99
2018-04-15T04:41:59.405Z,99.99
2018-04-15T04:42:59.420Z,99.99
2018-04-15T04:43:59.434Z,99.99
2018-04-15T04:44:59.504Z,99.99
2018-04-15T04:45:59.467Z,99.99
2018-04-15T04:46:59.482Z,99.99
2018-04-15T04:47:59.498Z,99.99
2018-04-15T04:48:59.512Z,99.99
2018-04-15T04:49:59.526Z,99.99
2018-04-15T04:50:59.591Z,99.99
2018-04-15T04:51:59.565Z,99.99
2018-04-15T04:52:59.578Z,99.99
2018-04-15T04:53:59.587Z,99.99
2018-04-15T04:54:59.604Z,99.99
2018-04-15T04:55:59.619Z,99.99
2018-04-15T04:56:59.638Z,99.99
2018-04-15T04:57:59.652Z,99.99
2018-04-15T04:58:59.665Z,99.99
2018-04-15T04:59:59.683Z,99.99
2018-04-15T05:00:59.699Z,99.99
2018-04-15T05:01:59.710Z,99.99
2018-04-15T05:02:59.932Z,99.99
2018-04-15T05:03:59.746Z,99.99
2018-04-15T05:04:59.756Z,99.99
2018-04-15T05:05:59.772Z,99.99
2018-04-15T05:06:59.787Z,99.99
2018-04-15T05:07:59.803Z,99.99
2018-04-15T05:08:59.819Z,99.99
2018-04-15T05:09:59.833Z,99.99
2018-04-15T05:10:59.847Z,99.99
2018-04-15T05:11:59.864Z,99.99
2018-04-15T05:12:59.881Z,99.99
2018-04-15T05:13:59.897Z,99.99
2018-04-15T05:14:59.908Z,99.99
2018-04-15T05:15:59.932Z,99.99
2018-04-15T05:16:59.952Z,99.99
2018-04-15T05:17:59.956Z,99.99
2018-04-15T05:18:59.971Z,99.99
2018-04-15T05:20:00.041Z,99.99
2018-04-15T05:21:00.003Z,99.99
2018-04-15T05:22:00.017Z,99.99
2018-04-15T05:23:00.041Z,99.99
2018-04-15T05:24:00.047Z,99.99
2018-04-15T05:25:00.069Z,99.99
2018-04-15T05:26:00.082Z,99.99
2018-04-15T05:27:00.093Z,99.99
2018-04-15T05:28:00.112Z,99.99
2018-04-15T05:29:00.124Z,99.99
2018-04-15T05:30:00.147Z,99.99
2018-04-15T05:31:00.155Z,99.99
2018-04-15T05:32:00.172Z,99.99
2018-04-15T05:33:00.187Z,99.99
2018-04-15T05:34:00.200Z,99.99
2018-04-15T05:35:00.220Z,99.99
2018-04-15T05:36:00.234Z,99.99
2018-04-15T05:37:00.246Z,99.99
2018-04-15T05:38:00.273Z,99.99
2018-04-15T05:39:00.278Z,99.99
2018-04-15T05:40:00.291Z,99.99
2018-04-15T05:41:00.312Z,99.99
2018-04-15T05:42:00.324Z,99.99
2018-04-15T05:43:00.337Z,99.99
2018-04-15T05:44:00.352Z,99.99
2018-04-15T05:45:00.370Z,99.99
2018-04-15T05:46:00.382Z,99.99
2018-04-15T05:47:00.400Z,99.99
2018-04-15T05:48:00.414Z,99.99
2018-04-15T05:49:00.428Z,99.99
2018-04-15T05:50:00.443Z,99.99
2018-04-15T05:51:00.458Z,99.99
2018-04-15T05:52:00.479Z,99.99
2018-04-15T05:53:00.490Z,99.99
2018-04-15T05:54:00.503Z,99.99
2018-04-15T05:55:00.517Z,99.99
2018-04-15T05:56:00.534Z,99.99
2018-04-15T05:57:00.551Z,99.99
2018-04-15T05:58:00.566Z,99.99
2018-04-15T05:59:00.580Z,99.99
2018-04-15T06:00:00.594Z,99.99
2018-04-15T06:01:00.621Z,99.99
2018-04-15T06:02:00.629Z,99.99
2018-04-15T06:03:00.645Z,99.99
2018-04-15T06:04:00.668Z,99.99
2018-04-15T06:05:00.674Z,99.99
2018-04-15T06:06:00.688Z,99.99
2018-04-15T06:07:00.701Z,99.99
2018-04-15T06:08:00.718Z,99.99
2018-04-15T06:09:00.733Z,99.99
2018-04-15T06:10:00.753Z,99.99
2018-04-15T06:11:00.762Z,99.99
2018-04-15T06:12:00.791Z,99.99
2018-04-15T06:13:00.800Z,99.99
2018-04-15T06:14:00.811Z,99.99
2018-04-15T06:15:00.830Z,99.99
2018-04-15T06:16:00.885Z,99.99
2018-04-15T06:17:00.857Z,99.99
2018-04-15T06:18:00.869Z,99.99
2018-04-15T06:19:00.886Z,99.99
2018-04-15T06:20:00.901Z,99.99
2018-04-15T06:21:01.017Z,99.99
2018-04-15T06:22:00.934Z,99.99
2018-04-15T06:23:00.949Z,99.99
2018-04-15T06:24:00.962Z,99.99
2018-04-15T06:25:00.989Z,99.99
2018-04-15T06:26:00.993Z,99.99
2018-04-15T06:27:01.025Z,99.99
2018-04-15T06:28:01.028Z,99.99
2018-04-15T06:29:01.042Z,99.99
2018-04-15T06:30:01.058Z,99.99
2018-04-15T06:31:01.071Z,99.99
2018-04-15T06:32:01.118Z,99.99
2018-04-15T06:33:01.134Z,99.99
2018-04-15T06:34:01.123Z,99.99
2018-04-15T06:35:01.136Z,99.99
2018-04-15T06:36:01.147Z,99.99
2018-04-15T06:37:01.167Z,99.99
2018-04-15T06:38:01.183Z,99.99
2018-04-15T06:39:01.194Z,99.99
2018-04-15T06:40:01.209Z,99.99
2018-04-15T06:41:01.231Z,99.99
2018-04-15T06:42:01.240Z,99.99
2018-04-15T06:43:01.266Z,99.99
2018-04-15T06:44:01.271Z,99.99
2018-04-15T06:45:01.292Z,99.99
2018-04-15T06:46:01.302Z,99.99
2018-04-15T06:47:01.316Z,99.99
2018-04-15T06:48:01.333Z,99.99
2018-04-15T06:49:01.362Z,99.99
2018-04-15T06:50:01.363Z,99.99
2018-04-15T06:51:01.382Z,99.99
2018-04-15T06:52:01.399Z,99.99
2018-04-15T06:53:01.411Z,99.99
2018-04-15T06:54:01.427Z,99.99
2018-04-15T06:55:01.443Z,99.99
2018-04-15T06:56:01.459Z,99.99
2018-04-15T06:57:01.473Z,99.99
2018-04-15T06:58:01.490Z,99.99
2018-04-15T06:59:01.506Z,99.99
2018-04-15T07:00:01.519Z,99.99
2018-04-15T07:01:01.536Z,99.99
2018-04-15T07:02:01.553Z,99.99
2018-04-15T07:03:01.566Z,99.99
2018-04-15T07:04:01.580Z,99.99
2018-04-15T07:05:01.597Z,99.99
2018-04-15T07:06:01.626Z,99.99
2018-04-15T07:07:01.628Z,99.99
2018-04-15T07:08:01.641Z,99.99
2018-04-15T07:09:01.657Z,99.99
2018-04-15T07:10:01.676Z,99.99
2018-04-15T07:12:01.703Z,99.99
2018-04-15T07:13:01.721Z,99.99
2018-04-15T07:14:01.738Z,99.99
2018-04-15T07:15:01.757Z,99.99
2018-04-15T07:16:01.767Z,99.99
2018-04-15T07:17:01.784Z,99.99
2018-04-15T07:18:01.805Z,99.99
2018-04-15T07:19:01.812Z,99.99
2018-04-15T07:20:01.828Z,99.99
2018-04-15T07:21:01.848Z,99.99
2018-04-15T07:22:01.860Z,99.99
2018-04-15T07:23:01.875Z,99.99
2018-04-15T07:24:01.893Z,99.99
2018-04-15T07:25:01.906Z,99.99
2018-04-15T07:26:01.938Z,99.99
2018-04-15T07:27:01.938Z,99.99
2018-04-15T07:28:01.958Z,99.99
2018-04-15T07:29:01.970Z,99.99
2018-04-15T07:30:01.989Z,99.99
2018-04-15T07:31:02.003Z,99.99
2018-04-15T07:32:02.019Z,99.99
2018-04-15T07:33:02.044Z,99.99
2018-04-15T07:34:02.054Z,99.99
2018-04-15T07:35:02.064Z,99.99
2018-04-15T07:36:02.080Z,99.99
2018-04-15T07:37:02.098Z,99.99
2018-04-15T07:38:02.124Z,99.99
2018-04-15T07:39:02.135Z,99.99
2018-04-15T07:40:02.145Z,99.99
2018-04-15T07:41:02.159Z,99.99
2018-04-15T07:42:02.176Z,99.99
2018-04-15T07:43:02.197Z,99.99
2018-04-15T07:44:02.207Z,99.99
2018-04-15T07:45:02.220Z,99.99
2018-04-15T07:46:02.240Z,99.99
2018-04-15T07:47:02.262Z,99.99
2018-04-15T07:48:02.296Z,99.99
2018-04-15T07:49:02.287Z,99.99
2018-04-15T07:50:02.301Z,99.99
2018-04-15T07:51:02.316Z,99.99
2018-04-15T07:52:02.341Z,99.99
2018-04-15T07:53:02.352Z,99.99
2018-04-15T07:54:02.365Z,99.99
2018-04-15T07:55:02.381Z,99.99
2018-04-15T07:56:02.404Z,99.99
2018-04-15T07:57:02.416Z,99.99
2018-04-15T07:58:02.430Z,99.99
2018-04-15T07:59:02.444Z,99.99
2018-04-15T08:00:02.462Z,99.99
2018-04-15T08:01:02.480Z,99.99
2018-04-15T08:02:02.494Z,99.99
2018-04-15T08:03:02.517Z,99.99
2018-04-15T08:04:02.532Z,99.99
2018-04-15T08:05:02.545Z,99.99
2018-04-15T08:06:02.560Z,99.99
2018-04-15T08:07:02.575Z,99.99
2018-04-15T08:08:02.590Z,99.99
2018-04-15T08:09:02.611Z,99.99
2018-04-15T08:10:02.625Z,99.99
2018-04-15T08:11:02.640Z,99.99
2018-04-15T08:12:02.661Z,99.99
2018-04-15T08:13:02.671Z,99.99
2018-04-15T08:14:02.686Z,99.99
2018-04-15T08:15:02.719Z,99.99
2018-04-15T08:16:02.723Z,99.99
2018-04-15T08:17:02.738Z,99.99
2018-04-15T08:18:02.754Z,99.99
2018-04-15T08:19:02.772Z,99.99
2018-04-15T08:20:02.788Z,99.99
2018-04-15T08:21:02.803Z,99.99
2018-04-15T08:22:02.818Z,99.99
2018-04-15T08:23:02.836Z,99.99
2018-04-15T08:24:02.860Z,99.99
2018-04-15T08:25:02.869Z,99.99
2018-04-15T08:26:02.883Z,99.99
2018-04-15T08:27:02.945Z,99.99
2018-04-15T08:28:02.918Z,99.99
2018-04-15T08:29:02.939Z,99.99
2018-04-15T08:30:02.951Z,99.99
2018-04-15T08:31:02.969Z,99.99
2018-04-15T08:32:02.983Z,99.99
2018-04-15T08:33:03.002Z,99.99
2018-04-15T08:34:03.019Z,99.99
2018-04-15T08:35:03.036Z,99.99
2018-04-15T08:36:03.051Z,99.99
2018-04-15T08:37:03.071Z,99.99
2018-04-15T08:38:03.083Z,99.99
2018-04-15T08:39:03.103Z,99.99
2018-04-15T08:40:03.117Z,99.99
2018-04-15T08:41:03.153Z,99.99
2018-04-15T08:42:03.150Z,99.99
2018-04-15T08:43:03.167Z,99.99
2018-04-15T08:44:03.182Z,99.96
2018-04-15T08:45:03.216Z,99.04
2018-04-15T08:46:03.238Z,99.99
2018-04-15T08:47:03.234Z,99.99
2018-04-15T08:48:03.265Z,99.57
2018-04-15T08:49:03.268Z,99.76
2018-04-15T08:50:03.282Z,99.57
2018-04-15T08:51:03.299Z,99.10
2018-04-15T08:52:03.318Z,99.38
2018-04-15T08:53:03.337Z,99.57
2018-04-15T08:54:03.350Z,98.52
2018-04-15T08:55:03.367Z,98.04
2018-04-15T08:56:03.385Z,97.85
2018-04-15T08:57:03.400Z,98.04
2018-04-15T08:58:03.467Z,95.94
2018-04-15T08:59:03.438Z,96.89
2018-04-15T09:00:03.451Z,95.56
2018-04-15T09:01:03.473Z,95.94
2018-04-15T09:02:03.482Z,96.61
2018-04-15T09:03:03.511Z,96.03
2018-04-15T09:04:03.522Z,96.13
2018-04-15T09:05:03.535Z,96.42
2018-04-15T09:06:03.553Z,95.84
2018-04-15T09:07:03.570Z,93.74
2018-04-15T09:08:03.585Z,92.78
2018-04-15T09:09:03.636Z,92.78
2018-04-15T09:10:03.620Z,92.30
2018-04-15T09:11:03.638Z,92.40
2018-04-15T09:12:03.653Z,91.63
2018-04-15T09:13:03.674Z,92.40
2018-04-15T09:14:03.690Z,94.21
2018-04-15T09:15:03.715Z,95.03
2018-04-15T09:16:03.735Z,96.08
2018-04-15T09:17:03.737Z,94.36
2018-04-15T09:19:03.829Z,94.21
2018-04-15T09:20:03.794Z,93.64
2018-04-15T09:21:03.804Z,94.60
2018-04-15T09:22:03.824Z,94.21
2018-04-15T09:23:03.842Z,93.64
2018-04-15T09:24:03.874Z,93.35
2018-04-15T09:25:03.883Z,94.36
2018-04-15T09:26:03.890Z,94.93
2018-04-15T09:27:03.904Z,95.36
2018-04-15T09:28:03.928Z,95.31
2018-04-15T09:29:03.938Z,94.17
2018-04-15T09:30:03.957Z,94.45
2018-04-15T09:31:03.971Z,91.77
2018-04-15T09:32:03.988Z,91.11
2018-04-15T09:33:04.038Z,90.34
2018-04-15T09:34:04.023Z,89.81
2018-04-15T09:35:04.046Z,89.62
2018-04-15T09:36:04.057Z,88.52
2018-04-15T09:37:04.077Z,89.29
2018-04-15T09:38:04.090Z,90.15
2018-04-15T09:39:04.130Z,89.95
2018-04-15T09:40:04.128Z,91.20
2018-04-15T09:41:04.190Z,90.05
2018-04-15T09:42:04.157Z,91.77
2018-04-15T09:43:04.209Z,91.49
2018-04-15T09:44:04.212Z,91.49
2018-04-15T09:45:04.205Z,90.24
2018-04-15T09:46:04.222Z,89.33
2018-04-15T09:47:04.245Z,89.43
2018-04-15T09:48:04.256Z,88.85
2018-04-15T09:49:04.275Z,88.37
2018-04-15T09:50:04.290Z,88.28
2018-04-15T09:51:04.311Z,88.13
2018-04-15T09:52:04.361Z,88.37
2018-04-15T09:53:04.342Z,89.04
2018-04-15T09:54:04.362Z,90.00
2018-04-15T09:55:04.371Z,90.58
2018-04-15T09:56:04.389Z,90.09
2018-04-15T09:57:04.417Z,90.09
2018-04-15T09:58:04.425Z,90.29
2018-04-15T09:59:04.439Z,89.90
2018-04-15T10:00:04.460Z,89.81
2018-04-15T10:01:04.479Z,89.90
2018-04-15T10:02:04.493Z,89.95
2018-04-15T10:03:04.512Z,88.13
2018-04-15T10:04:04.546Z,87.65
2018-04-15T10:05:04.546Z,87.08
2018-04-15T10:06:04.583Z,85.93
2018-04-15T10:07:04.576Z,86.41
2018-04-15T10:08:04.596Z,86.88
2018-04-15T10:09:04.610Z,86.21
2018-04-15T10:10:04.632Z,85.25
2018-04-15T10:11:04.648Z,85.93
2018-04-15T10:12:04.669Z,85.78
2018-04-15T10:13:04.692Z,85.78
2018-04-15T10:14:04.694Z,83.38
2018-04-15T10:15:04.713Z,84.91
2018-04-15T10:16:04.728Z,84.53
2018-04-15T10:17:04.750Z,84.67
2018-04-15T10:18:04.766Z,81.70
2018-04-15T10:19:04.781Z,81.22
2018-04-15T10:20:04.822Z,82.14
2018-04-15T10:21:04.818Z,81.60
2018-04-15T10:22:04.834Z,81.41
2018-04-15T10:23:04.853Z,81.51
2018-04-15T10:24:04.906Z,81.02
2018-04-15T10:25:04.893Z,82.94
2018-04-15T10:26:04.907Z,82.75
2018-04-15T10:27:04.925Z,81.79
2018-04-15T10:28:04.952Z,81.60
2018-04-15T10:29:04.965Z,80.26
2018-04-15T10:30:04.993Z,79.82
2018-04-15T10:31:04.999Z,80.30
2018-04-15T10:32:05.010Z,77.80
2018-04-15T10:33:05.030Z,79.34
2018-04-15T10:34:05.050Z,80.11
2018-04-15T10:35:05.068Z,79.05
2018-04-15T10:36:05.080Z,79.05
2018-04-15T10:37:05.101Z,78.77
2018-04-15T10:38:05.120Z,78.86
2018-04-15T10:39:05.137Z,79.53
2018-04-15T10:40:05.159Z,80.40
2018-04-15T10:41:05.173Z,80.68
2018-04-15T10:42:05.190Z,80.97
2018-04-15T10:43:05.212Z,79.63
2018-04-15T10:44:05.225Z,79.96
2018-04-15T10:45:05.245Z,79.86
2018-04-15T10:46:05.275Z,78.96
2018-04-15T10:47:05.281Z,79.34
2018-04-15T10:48:05.305Z,78.86
2018-04-15T10:49:05.324Z,79.05
2018-04-15T10:50:05.339Z,78.38
2018-04-15T10:51:05.358Z,77.61
2018-04-15T10:52:05.371Z,78.86
2018-04-15T10:53:05.387Z,78.23
2018-04-15T10:54:05.410Z,77.46
2018-04-15T10:55:05.424Z,78.03
2018-04-15T10:56:05.448Z,76.40
2018-04-15T10:57:05.463Z,74.68
2018-04-15T10:58:05.480Z,73.81
2018-04-15T10:59:05.495Z,74.77
2018-04-15T11:00:05.514Z,73.81
2018-04-15T11:01:05.572Z,75.45
2018-04-15T11:02:05.606Z,73.52
2018-04-15T11:03:05.593Z,73.72
2018-04-15T11:04:05.588Z,73.43
2018-04-15T11:05:05.619Z,73.46
2018-04-15T11:06:05.625Z,70.58
2018-04-15T11:07:05.648Z,70.33
2018-04-15T11:08:05.660Z,69.75
2018-04-15T11:09:05.679Z,70.68
2018-04-15T11:10:05.698Z,70.68
2018-04-15T11:11:05.723Z,67.61
2018-04-15T11:12:05.739Z,68.47
2018-04-15T11:13:05.753Z,67.83
2018-04-15T11:14:05.857Z,69.85
2018-04-15T11:15:05.793Z,68.51
2018-04-15T11:16:05.806Z,68.70
2018-04-15T11:17:05.829Z,69.56
2018-04-15T11:18:05.842Z,68.70
2018-04-15T11:19:05.860Z,68.89
2018-04-15T11:20:05.932Z,68.98
2018-04-15T11:21:05.898Z,69.75
2018-04-15T11:22:05.921Z,68.85
2018-04-15T11:23:05.940Z,67.80
2018-04-15T11:24:05.958Z,67.83
2018-04-15T11:25:05.977Z,67.93
2018-04-15T11:26:05.991Z,69.08
2018-04-15T11:27:06.011Z,68.02
2018-04-15T11:28:06.027Z,69.18
2018-04-15T11:29:06.046Z,69.37
2018-04-15T11:30:06.064Z,68.21
2018-04-15T11:31:06.087Z,67.54
2018-04-15T11:32:06.103Z,67.07
2018-04-15T11:33:06.120Z,68.02
2018-04-15T11:34:06.182Z,69.27
2018-04-15T11:35:06.156Z,68.51
2018-04-15T11:36:06.178Z,69.27
2018-04-15T11:37:06.200Z,69.46
2018-04-15T11:38:06.212Z,69.08
2018-04-15T11:39:06.229Z,68.60
2018-04-15T11:40:06.248Z,68.31
2018-04-15T11:41:06.269Z,69.95
2018-04-15T11:42:06.306Z,68.41
2018-04-15T11:43:06.309Z,68.31
2018-04-15T11:44:06.321Z,68.41
2018-04-15T11:45:06.341Z,69.08
2018-04-15T11:46:06.359Z,69.66
2018-04-15T11:47:06.378Z,70.84
2018-04-15T11:48:06.397Z,68.92
2018-04-15T11:49:06.420Z,67.96
2018-04-15T11:50:06.436Z,67.29
2018-04-15T11:51:06.466Z,67.58
2018-04-15T11:52:06.470Z,68.06
2018-04-15T11:53:06.489Z,68.19
2018-04-15T11:54:06.509Z,63.95
2018-04-15T11:55:06.537Z,63.02
2018-04-15T11:56:06.548Z,62.83
2018-04-15T11:57:06.572Z,61.87
2018-04-15T11:58:06.588Z,64.08
2018-04-15T11:59:06.908Z,62.64
2018-04-15T12:00:06.620Z,63.79
2018-04-15T12:01:06.642Z,63.70
2018-04-15T12:02:06.661Z,64.82
2018-04-15T12:03:06.682Z,65.59
2018-04-15T12:04:06.699Z,65.50
2018-04-15T12:05:06.717Z,64.40
2018-04-15T12:06:06.785Z,65.27
2018-04-15T12:07:06.770Z,67.22
2018-04-15T12:08:06.820Z,65.59
2018-04-15T12:09:06.925Z,65.88
2018-04-15T12:10:06.865Z,65.11
2018-04-15T12:11:06.886Z,62.71
2018-04-15T12:12:06.869Z,63.57
2018-04-15T12:13:06.875Z,61.97
2018-04-15T12:14:07.098Z,62.32
2018-04-15T12:15:06.926Z,61.74
2018-04-15T12:16:06.959Z,62.51
2018-04-15T12:17:06.960Z,62.90
2018-04-15T12:18:06.990Z,62.93
2018-04-15T12:19:06.992Z,62.51
2018-04-15T12:20:07.044Z,62.41
2018-04-15T12:21:07.033Z,62.41
2018-04-15T12:22:07.049Z,61.94
2018-04-15T12:23:07.079Z,63.48
2018-04-15T12:24:07.089Z,63.95
2018-04-15T12:25:07.107Z,63.45
2018-04-15T12:26:07.128Z,64.02
2018-04-15T12:27:07.145Z,63.86
2018-04-15T12:28:07.170Z,63.95
2018-04-15T12:29:07.220Z,63.18
2018-04-15T12:30:07.246Z,63.57
2018-04-15T12:31:07.235Z,60.49
2018-04-15T12:32:07.258Z,59.82
2018-04-15T12:33:07.277Z,61.65
2018-04-15T12:34:07.290Z,62.71
2018-04-15T12:35:07.315Z,64.63
2018-04-15T12:36:07.333Z,64.05
2018-04-15T12:37:07.344Z,64.79
2018-04-15T12:38:07.361Z,65.56
2018-04-15T12:39:07.392Z,65.75
2018-04-15T12:40:07.447Z,65.27
2018-04-15T12:41:07.428Z,64.69
2018-04-15T12:42:07.470Z,64.89
2018-04-15T12:43:07.452Z,64.50
2018-04-15T12:44:07.471Z,64.60
2018-04-15T12:45:07.496Z,64.98
2018-04-15T12:46:07.511Z,64.40
2018-04-15T12:47:07.531Z,66.04
2018-04-15T12:48:07.551Z,65.30
2018-04-15T12:49:07.572Z,64.05
2018-04-15T12:50:07.595Z,62.80
2018-04-15T12:51:07.609Z,61.65
2018-04-15T12:52:07.652Z,61.84
2018-04-15T12:53:07.644Z,63.67
2018-04-15T12:54:07.664Z,62.77
2018-04-15T12:55:07.682Z,62.29